Time;durP1;ratioP1;P1;durP2;ratioP2;P2;SDS_P1;SDS_P2;PMS_P1;PMS_P2;Temp;Humidity;BMP_temperature;BMP_pressure;BME280_temperature;BME280_humidity;BME280_pressure;Samples;Min_cycle;Max_cycle;Signal;HPM_P1;HPM_P2
2022/06/04 00:00:22;;;;;;;;;;;;;;;24.89;56.34;99990.22;5032630;28;19916;-38
2022/06/04 00:02:48;;;;;;;;;;;;;;;24.80;56.48;99988.44;5033054;28;19920;-38
2022/06/04 00:05:15;;;;;;;;;;;;;;;24.83;56.08;99982.41;5032700;28;20365;-38
2022/06/04 00:07:41;;;;;;;;;;;;;;;24.81;56.33;99980.00;5032638;28;20462;-38
2022/06/04 00:15:47;;;;;;;;;;;;;;;24.88;56.09;99972.25;5032249;28;19924;-38
2022/06/04 00:18:12;;;;;;;;;;;;;;;24.77;56.07;99963.44;5032465;28;19909;-38
2022/06/04 00:20:38;;;;;;;;;;;;;;;24.66;56.59;99963.88;5032510;28;19909;-38
2022/06/04 00:23:05;;;;;;;;;;;;;;;24.55;57.34;99961.25;5032238;28;19967;-38
2022/06/04 00:25:30;;;;;;;;;;;;;;;24.60;57.09;99952.25;5031097;28;20400;-38
2022/06/04 00:27:56;;;;;;;;;;;;;;;24.76;56.85;99961.00;5031650;28;19913;-37
2022/06/04 00:30:21;;;;;;;;;;;;;;;24.73;57.56;99954.25;5031707;28;19908;-38
2022/06/04 00:32:47;;;;;;;;;;;;;;;24.77;57.79;99957.19;5031692;28;19917;-38
2022/06/04 00:35:13;;;;;;;;;;;;;;;24.24;59.88;99960.81;5032006;28;19908;-38
2022/06/04 00:37:38;;;;;;;;;;;;;;;24.35;60.06;99956.03;5032111;28;20017;-38
2022/06/04 00:40:04;;;;;;;;;;;;;;;24.40;59.95;99953.25;5031842;28;19913;-37
2022/06/04 00:42:29;;;;;;;;;;;;;;;24.29;60.79;99949.03;5031948;28;19909;-38
2022/06/04 00:45:13;;;;;;;;;;;;;;;24.30;61.06;99947.97;5031991;28;19913;-38
2022/06/04 00:47:41;;;;;;;;;;;;;;;24.26;61.86;99936.84;5046994;28;20475;-37
2022/06/04 00:50:08;;;;;;;;;;;;;;;24.04;62.85;99950.13;5051583;28;19921;-37
2022/06/04 00:52:33;;;;;;;;;;;;;;;23.93;63.32;99955.69;5051580;28;20366;-38
2022/06/04 00:54:59;;;;;;;;;;;;;;;24.04;63.03;99958.28;5051537;28;19919;-38
2022/06/04 00:57:45;;;;;;;;;;;;;;;24.00;63.33;99960.78;5051568;28;19987;-38
2022/06/04 01:00:17;;;;;;;;;;;;;;;23.89;64.00;99959.25;5051990;28;20017;-38
2022/06/04 01:02:45;;;;;;;;;;;;;;;23.92;63.85;99961.41;5051124;28;19916;-38
2022/06/04 01:05:39;;;;;;;;;;;;;;;23.87;63.65;99956.00;5051456;28;20318;-38
2022/06/04 01:08:10;;;;;;;;;;;;;;;24.03;62.92;99949.34;5051739;28;19909;-38
2022/06/04 01:10:38;;;;;;;;;;;;;;;23.92;63.56;99955.97;5051316;28;19909;-38
2022/06/04 01:13:04;;;;;;;;;;;;;;;23.79;64.20;99958.25;5035255;28;19913;-38
2022/06/04 01:15:29;;;;;;;;;;;;;;;23.67;64.13;99957.00;5031368;28;19909;-38
2022/06/04 01:17:57;;;;;;;;;;;;;;;23.71;63.79;99953.41;5031296;28;19909;-38
2022/06/04 01:20:28;;;;;;;;;;;;;;;23.77;62.86;99949.53;5031201;28;20292;-38
2022/06/04 01:23:05;;;;;;;;;;;;;;;23.61;62.57;99948.88;5030883;28;19932;-38
2022/06/04 01:25:40;;;;;;;;;;;;;;;23.81;62.21;99950.63;5031002;28;19920;-38
2022/06/04 01:28:11;;;;;;;;;;;;;;;23.82;61.79;99948.75;5030659;28;19913;-38
2022/06/04 01:30:42;;;;;;;;;;;;;;;23.82;61.36;99946.03;5029544;28;20282;-38
2022/06/04 01:33:11;;;;;;;;;;;;;;;23.69;61.87;99946.66;5030840;28;19920;-38
2022/06/04 01:35:50;;;;;;;;;;;;;;;23.47;62.55;99947.09;5031041;28;20345;-38
2022/06/04 01:38:24;;;;;;;;;;;;;;;23.28;63.40;99941.56;5031733;28;19916;-38
2022/06/04 01:41:07;;;;;;;;;;;;;;;23.28;63.48;99939.66;5031551;28;19909;-38
2022/06/04 01:43:48;;;;;;;;;;;;;;;23.33;63.63;99936.91;5031534;28;19909;-37
2022/06/04 01:46:16;;;;;;;;;;;;;;;23.29;64.39;99932.34;5030663;28;19948;-38
2022/06/04 01:48:43;;;;;;;;;;;;;;;23.34;64.81;99922.25;5036081;28;19908;-38
2022/06/04 01:51:09;;;;;;;;;;;;;;;23.32;64.95;99926.31;5050993;28;19920;-37
2022/06/04 01:53:36;;;;;;;;;;;;;;;23.26;65.08;99935.59;5051145;28;19916;-37
2022/06/04 01:56:07;;;;;;;;;;;;;;;23.26;65.19;99936.41;5050927;28;19909;-38
2022/06/04 01:58:37;;;;;;;;;;;;;;;23.36;64.87;99933.63;5050795;28;19909;-37
2022/06/04 02:01:08;;;;;;;;;;;;;;;23.34;64.75;99930.38;5050256;28;19990;-38
2022/06/04 02:03:54;;;;;;;;;;;;;;;23.16;65.41;99928.34;5050154;28;19932;-38
2022/06/04 02:06:21;;;;;;;;;;;;;;;23.32;64.89;99935.28;5042519;28;19908;-37
2022/06/04 02:08:50;;;;;;;;;;;;;;;23.25;65.22;99937.50;5050143;28;20371;-38
2022/06/04 02:11:18;;;;;;;;;;;;;;;23.09;65.85;99942.22;5049286;28;20248;-38
2022/06/04 02:13:44;;;;;;;;;;;;;;;23.13;66.09;99946.00;5030286;28;20342;-38
2022/06/04 02:16:25;;;;;;;;;;;;;;;23.13;66.49;99953.31;5030150;28;19916;-37
2022/06/04 02:18:50;;;;;;;;;;;;;;;23.19;66.70;99953.03;5030359;28;19913;-38
2022/06/04 02:21:18;;;;;;;;;;;;;;;23.25;66.87;99948.38;5030515;28;20269;-38
2022/06/04 02:23:43;;;;;;;;;;;;;;;23.15;67.31;99951.13;5030570;28;19909;-38
2022/06/04 02:26:09;;;;;;;;;;;;;;;23.15;67.11;99945.72;5046863;28;19931;-38
2022/06/04 02:28:36;;;;;;;;;;;;;;;23.11;67.09;99958.22;5050603;28;19909;-38
2022/06/04 02:31:10;;;;;;;;;;;;;;;23.07;67.16;99959.88;5050609;28;19924;-38
2022/06/04 02:33:38;;;;;;;;;;;;;;;23.06;66.71;99961.81;5050759;28;19924;-37
2022/06/04 02:36:07;;;;;;;;;;;;;;;23.12;66.11;99966.09;5050733;28;19928;-38
2022/06/04 02:38:35;;;;;;;;;;;;;;;23.04;65.96;99972.13;5052984;28;20590;-37
2022/06/04 02:41:06;;;;;;;;;;;;;;;23.31;64.75;99971.66;5054716;28;19909;-38
2022/06/04 02:43:50;;;;;;;;;;;;;;;23.23;64.44;99973.09;5054355;28;19909;-38
2022/06/04 02:46:15;;;;;;;;;;;;;;;23.19;64.46;99977.44;5054580;28;19936;-38
2022/06/04 02:48:44;;;;;;;;;;;;;;;23.01;65.00;99973.44;5046867;28;19958;-38
2022/06/04 02:51:32;;;;;;;;;;;;;;;22.99;65.04;99972.13;5034384;28;19937;-38
2022/06/04 02:53:58;;;;;;;;;;;;;;;23.08;64.37;99973.19;5034256;28;19956;-38
2022/06/04 02:56:27;;;;;;;;;;;;;;;23.10;64.18;99981.06;5034203;28;19909;-38
2022/06/04 02:58:55;;;;;;;;;;;;;;;22.96;64.31;99981.63;5034114;28;19909;-38
2022/06/04 03:01:21;;;;;;;;;;;;;;;22.95;64.15;99990.84;5034278;28;19913;-42
2022/06/04 03:03:46;;;;;;;;;;;;;;;22.91;64.13;99999.84;5034504;28;19913;-38
2022/06/04 03:06:23;;;;;;;;;;;;;;;23.17;63.58;99989.66;5034148;28;19916;-37
2022/06/04 03:08:48;;;;;;;;;;;;;;;22.71;64.28;100000.75;5034245;28;19916;-38
2022/06/04 03:11:14;;;;;;;;;;;;;;;22.73;64.42;100002.09;5034421;28;19909;-37
2022/06/04 03:13:39;;;;;;;;;;;;;;;22.87;64.13;100001.50;5034074;28;19920;-38
2022/06/04 03:16:05;;;;;;;;;;;;;;;22.97;63.76;100007.66;5034653;28;19909;-38
2022/06/04 03:18:31;;;;;;;;;;;;;;;23.01;63.33;100003.28;5033954;28;20380;-38
2022/06/04 03:20:56;;;;;;;;;;;;;;;22.98;63.71;100006.59;5033827;28;19944;-37
2022/06/04 03:23:21;;;;;;;;;;;;;;;23.24;62.76;100006.47;5033871;28;19949;-38
2022/06/04 03:25:46;;;;;;;;;;;;;;;22.99;63.49;100008.19;5033880;28;20013;-37
2022/06/04 03:28:12;;;;;;;;;;;;;;;23.16;62.73;100007.06;5033923;28;20019;-37
2022/06/04 03:30:38;;;;;;;;;;;;;;;23.11;62.79;100005.16;5033309;28;19971;-38
2022/06/04 03:33:04;;;;;;;;;;;;;;;23.42;61.29;100000.38;5031954;28;19913;-38
2022/06/04 03:35:29;;;;;;;;;;;;;;;23.29;61.62;100005.63;5033029;28;19909;-38
2022/06/04 03:37:54;;;;;;;;;;;;;;;23.36;61.13;100001.50;5033148;28;19909;-38
2022/06/04 03:40:20;;;;;;;;;;;;;;;23.59;60.70;100002.69;5033399;28;20042;-38
2022/06/04 03:42:46;;;;;;;;;;;;;;;23.81;59.40;100004.97;5033278;28;20001;-38
2022/06/04 03:45:12;;;;;;;;;;;;;;;24.00;58.88;99998.81;5033677;28;20287;-38
2022/06/04 03:47:37;;;;;;;;;;;;;;;24.22;57.97;100000.22;5033469;28;19909;-37
2022/06/04 03:50:08;;;;;;;;;;;;;;;24.21;58.04;100002.16;5032343;28;19916;-37
2022/06/04 03:52:33;;;;;;;;;;;;;;;24.47;57.29;100015.47;5033486;28;19917;-37
2022/06/04 03:54:59;;;;;;;;;;;;;;;24.65;56.59;100019.38;5033413;28;19935;-38
2022/06/04 03:57:41;;;;;;;;;;;;;;;24.84;56.02;100019.41;5033177;28;20039;-38
2022/06/04 04:00:10;;;;;;;;;;;;;;;24.87;55.73;100025.06;5033280;28;19935;-38
2022/06/04 04:02:36;;;;;;;;;;;;;;;25.00;55.14;100020.84;5032608;28;20296;-38
2022/06/04 04:05:02;;;;;;;;;;;;;;;25.24;54.31;100022.72;5033192;28;20282;-37
2022/06/04 04:07:27;;;;;;;;;;;;;;;25.41;53.90;100022.19;5033299;28;20396;-36
2022/06/04 04:09:52;;;;;;;;;;;;;;;25.71;53.62;100013.53;5033104;28;20293;-37
2022/06/04 04:12:17;;;;;;;;;;;;;;;26.02;52.26;100021.19;5032802;28;19912;-37
2022/06/04 04:14:43;;;;;;;;;;;;;;;26.05;52.37;100025.25;5032974;28;20360;-37
2022/06/04 04:17:09;;;;;;;;;;;;;;;26.32;51.38;100016.31;5032819;28;19916;-37
2022/06/04 04:19:34;;;;;;;;;;;;;;;26.49;50.82;100010.25;5033195;28;19916;-37
2022/06/04 04:21:59;;;;;;;;;;;;;;;26.68;50.82;100007.44;5032948;28;19909;-37
2022/06/04 04:24:25;;;;;;;;;;;;;;;26.76;50.02;99995.78;5032526;28;19916;-37
2022/06/04 04:26:50;;;;;;;;;;;;;;;27.20;48.78;100004.41;5032821;28;20355;-38
2022/06/04 04:29:16;;;;;;;;;;;;;;;27.31;47.94;100011.28;5033014;28;19913;-38
2022/06/04 04:31:41;;;;;;;;;;;;;;;27.32;47.81;100006.59;5032857;28;19956;-38
2022/06/04 04:34:06;;;;;;;;;;;;;;;27.32;47.73;100004.69;5032815;28;19916;-37
2022/06/04 04:36:32;;;;;;;;;;;;;;;27.55;47.14;100004.69;5032605;28;20349;-37
2022/06/04 04:38:57;;;;;;;;;;;;;;;27.51;47.25;100012.69;5032739;28;19909;-38
2022/06/04 04:41:23;;;;;;;;;;;;;;;27.99;46.21;100011.28;5032758;28;20349;-38
2022/06/04 04:43:49;;;;;;;;;;;;;;;28.47;45.25;100013.25;5032403;28;19958;-38
2022/06/04 04:46:14;;;;;;;;;;;;;;;28.80;44.35;100005.47;5032453;28;19966;-38
2022/06/04 04:48:41;;;;;;;;;;;;;;;28.79;44.30;100012.09;5032629;28;19963;-38
2022/06/04 04:51:10;;;;;;;;;;;;;;;28.85;43.84;100013.53;5032635;28;19920;-36
2022/06/04 04:53:35;;;;;;;;;;;;;;;29.55;42.95;100008.13;5032489;28;19913;-38
2022/06/04 04:56:01;;;;;;;;;;;;;;;29.89;41.87;100019.38;5032342;28;19916;-37
2022/06/04 04:58:26;;;;;;;;;;;;;;;29.84;41.94;100017.63;5032405;28;19986;-38
2022/06/04 05:00:51;;;;;;;;;;;;;;;29.72;42.67;100022.91;5032090;28;20528;-38
2022/06/04 05:03:17;;;;;;;;;;;;;;;29.68;42.57;100020.00;5032187;28;19931;-38
2022/06/04 05:05:42;;;;;;;;;;;;;;;29.81;42.13;100023.75;5031629;28;19909;-37
2022/06/04 05:08:07;;;;;;;;;;;;;;;30.06;41.48;100024.78;5031468;28;19909;-38
2022/06/04 05:10:33;;;;;;;;;;;;;;;30.24;41.30;100025.56;5031640;28;19966;-38
2022/06/04 05:12:58;;;;;;;;;;;;;;;30.64;40.03;100025.25;5046265;28;20367;-36
2022/06/04 05:15:23;;;;;;;;;;;;;;;30.64;40.22;100032.69;5051708;28;20356;-37
2022/06/04 05:17:49;;;;;;;;;;;;;;;30.63;40.42;100020.06;5051287;28;19908;-38
2022/06/04 05:20:14;;;;;;;;;;;;;;;30.87;40.03;100024.94;5051628;28;19908;-37
2022/06/04 05:22:41;;;;;;;;;;;;;;;30.98;39.90;100037.97;5051356;28;19915;-37
2022/06/04 05:25:07;;;;;;;;;;;;;;;31.23;38.87;100029.88;5051236;28;19938;-37
2022/06/04 05:27:32;;;;;;;;;;;;;;;31.25;38.50;100032.31;5051628;28;19915;-37
2022/06/04 05:29:57;;;;;;;;;;;;;;;31.07;39.04;100037.94;5051353;28;19982;-37
2022/06/04 05:32:23;;;;;;;;;;;;;;;31.23;38.58;100040.09;5035322;28;20003;-38
2022/06/04 05:34:48;;;;;;;;;;;;;;;31.77;37.46;100049.16;5031202;28;20019;-37
2022/06/04 05:37:13;;;;;;;;;;;;;;;31.74;37.62;100052.59;5031554;28;19916;-37
2022/06/04 05:39:38;;;;;;;;;;;;;;;31.84;37.73;100053.31;5030994;28;19916;-39
2022/06/04 05:42:04;;;;;;;;;;;;;;;32.16;37.35;100048.94;5031560;28;19909;-40
2022/06/04 05:44:30;;;;;;;;;;;;;;;32.10;37.19;100051.13;5030096;28;20007;-36
2022/06/04 05:46:55;;;;;;;;;;;;;;;32.48;36.62;100050.00;5031604;28;19909;-37
2022/06/04 05:49:20;;;;;;;;;;;;;;;32.45;36.50;100045.19;5043604;28;19909;-37
2022/06/04 05:51:46;;;;;;;;;;;;;;;32.90;35.92;100051.72;5051334;28;19927;-48
2022/06/04 05:54:12;;;;;;;;;;;;;;;33.99;34.13;100051.72;5050549;28;20372;-51
2022/06/04 05:56:39;;;;;;;;;;;;;;;33.58;34.46;100052.94;5051423;28;19909;-51
2022/06/04 05:59:08;;;;;;;;;;;;;;;33.42;35.21;100055.66;5050940;28;19919;-51
2022/06/04 06:01:34;;;;;;;;;;;;;;;33.51;35.04;100056.31;5048271;28;19908;-49
2022/06/04 06:04:00;;;;;;;;;;;;;;;33.62;34.83;100056.59;5041316;28;20369;-48
2022/06/04 06:06:28;;;;;;;;;;;;;;;34.43;34.16;100057.19;5040045;28;19991;-51
2022/06/04 06:08:54;;;;;;;;;;;;;;;34.22;34.00;100053.91;5042040;28;19960;-50
2022/06/04 06:11:19;;;;;;;;;;;;;;;33.84;34.14;100042.25;5043329;28;20051;-51
2022/06/04 06:13:46;;;;;;;;;;;;;;;33.69;34.83;100049.34;5036395;28;19995;-49
2022/06/04 06:16:22;;;;;;;;;;;;;;;33.94;34.28;100049.22;5043200;28;19916;-49
2022/06/04 06:18:47;;;;;;;;;;;;;;;34.90;33.16;100047.28;5035626;28;19921;-50
2022/06/04 06:21:15;;;;;;;;;;;;;;;35.15;32.97;100047.03;5035862;28;19908;-49
2022/06/04 06:23:40;;;;;;;;;;;;;;;34.76;33.04;100039.44;5034717;28;19935;-49
2022/06/04 06:26:16;;;;;;;;;;;;;;;34.49;33.87;100045.88;5035077;28;20011;-49
2022/06/04 06:28:42;;;;;;;;;;;;;;;34.80;33.09;100039.53;5040445;28;20380;-50
2022/06/04 06:31:09;;;;;;;;;;;;;;;35.11;32.89;100038.66;5039957;28;20384;-49
2022/06/04 06:33:35;;;;;;;;;;;;;;;35.24;32.83;100042.91;5041560;28;19978;-50
2022/06/04 06:36:02;;;;;;;;;;;;;;;35.50;32.61;100033.13;5046480;28;19917;-49
2022/06/04 06:38:28;;;;;;;;;;;;;;;35.04;32.37;100030.97;5039808;28;19909;-50
2022/06/04 06:40:54;;;;;;;;;;;;;;;35.35;32.40;100043.09;5033438;28;19936;-50
2022/06/04 06:43:20;;;;;;;;;;;;;;;36.15;32.09;100046.19;5029974;28;19963;-51
2022/06/04 06:45:46;;;;;;;;;;;;;;;36.35;31.28;100035.88;5039497;28;19917;-51
2022/06/04 06:48:12;;;;;;;;;;;;;;;35.75;31.91;100044.69;5043799;28;19909;-49
2022/06/04 06:50:37;;;;;;;;;;;;;;;35.74;31.27;100034.81;5038805;28;19917;-49
2022/06/04 06:53:03;;;;;;;;;;;;;;;35.72;31.63;100037.16;5038970;28;20000;-51
2022/06/04 06:55:28;;;;;;;;;;;;;;;36.14;31.22;100041.06;5037294;28;20629;-51
2022/06/04 06:57:53;;;;;;;;;;;;;;;36.69;30.70;100043.53;5029686;28;19909;-51
2022/06/04 07:00:18;;;;;;;;;;;;;;;35.50;32.06;100041.44;5030141;28;19909;-50
2022/06/04 07:02:44;;;;;;;;;;;;;;;35.65;31.91;100041.72;5034727;28;20020;-52
2022/06/04 07:05:10;;;;;;;;;;;;;;;35.43;32.13;100036.56;5029630;28;19909;-51
2022/06/04 07:07:35;;;;;;;;;;;;;;;35.69;32.03;100034.31;5029977;28;19952;-48
2022/06/04 07:10:01;;;;;;;;;;;;;;;36.50;30.40;100033.31;5035327;28;20381;-52
2022/06/04 07:12:26;;;;;;;;;;;;;;;36.73;29.84;100027.78;5036092;28;19912;-51
2022/06/04 07:14:51;;;;;;;;;;;;;;;36.17;31.42;100020.94;5039117;28;19925;-51
2022/06/04 07:17:17;;;;;;;;;;;;;;;35.71;32.24;100030.00;5044061;28;20279;-51
2022/06/04 07:19:42;;;;;;;;;;;;;;;36.20;31.27;100018.25;5038056;28;19913;-52
2022/06/04 07:22:08;;;;;;;;;;;;;;;36.07;31.33;100005.72;5034231;28;20023;-52
2022/06/04 07:24:35;;;;;;;;;;;;;;;36.96;30.26;100014.63;5031503;28;19908;-51
2022/06/04 07:27:00;;;;;;;;;;;;;;;36.76;30.11;100016.72;5048220;28;19909;-50
2022/06/04 07:29:26;;;;;;;;;;;;;;;36.66;30.51;100005.50;5051903;28;19919;-52
2022/06/04 07:31:52;;;;;;;;;;;;;;;36.45;30.62;100012.28;5042240;28;19935;-49
2022/06/04 07:34:17;;;;;;;;;;;;;;;36.74;29.99;100010.75;5041707;28;19951;-38
2022/06/04 07:36:44;;;;;;;;;;;;;;;36.73;30.22;100002.84;5040321;28;19967;-39
2022/06/04 07:39:10;;;;;;;;;;;;;;;37.56;28.56;99999.88;5048652;28;19909;-38
2022/06/04 07:41:41;;;;;;;;;;;;;;;36.94;28.75;100008.66;5043280;28;19920;-38
2022/06/04 07:44:07;;;;;;;;;;;;;;;35.95;30.54;100012.25;5040357;28;20269;-52
2022/06/04 07:46:32;;;;;;;;;;;;;;;35.77;30.65;100011.91;5043721;28;20353;-52
2022/06/04 07:49:00;;;;;;;;;;;;;;;35.60;31.60;100004.06;5038319;28;19909;-52
2022/06/04 07:51:26;;;;;;;;;;;;;;;36.48;30.26;100014.34;5042907;28;19995;-52
2022/06/04 07:53:52;;;;;;;;;;;;;;;36.01;31.12;100002.47;5038964;28;19920;-38
2022/06/04 07:56:18;;;;;;;;;;;;;;;35.55;31.56;100009.91;5039214;28;19913;-52
2022/06/04 07:58:44;;;;;;;;;;;;;;;35.86;31.30;100003.38;5041521;28;19909;-51
2022/06/04 08:01:10;;;;;;;;;;;;;;;35.61;30.62;100005.69;5042375;28;19909;-49
2022/06/04 08:03:37;;;;;;;;;;;;;;;35.73;31.36;100004.72;5041808;28;19916;-51
2022/06/04 08:06:04;;;;;;;;;;;;;;;36.46;29.53;100004.78;5041076;28;19936;-49
2022/06/04 08:08:32;;;;;;;;;;;;;;;36.07;30.84;99996.63;5035077;28;19970;-51
2022/06/04 08:10:58;;;;;;;;;;;;;;;35.90;31.98;100006.22;5040600;28;20536;-38
2022/06/04 08:13:26;;;;;;;;;;;;;;;35.90;30.56;100000.69;5032970;28;19944;-38
2022/06/04 08:15:55;;;;;;;;;;;;;;;35.70;30.28;100003.50;5037712;28;19916;-38
2022/06/04 08:18:20;;;;;;;;;;;;;;;36.17;30.30;99996.81;5043257;28;19971;-38
2022/06/04 08:20:46;;;;;;;;;;;;;;;35.27;31.57;99999.88;5045009;28;20384;-38
2022/06/04 08:23:11;;;;;;;;;;;;;;;35.61;30.98;99997.38;5036245;28;20312;-39
2022/06/04 08:25:38;;;;;;;;;;;;;;;35.85;31.30;99987.94;5032335;28;19970;-39
2022/06/04 08:28:03;;;;;;;;;;;;;;;35.14;32.52;99990.09;5032771;28;20018;-39
2022/06/04 08:30:29;;;;;;;;;;;;;;;34.30;32.55;99988.63;5039793;28;19941;-39
2022/06/04 08:32:54;;;;;;;;;;;;;;;34.74;31.29;99982.94;5052479;28;19919;-37
2022/06/04 08:35:20;;;;;;;;;;;;;;;34.82;31.81;99981.94;5052316;28;20385;-38
2022/06/04 08:37:45;;;;;;;;;;;;;;;34.84;32.02;99977.66;5052276;28;19919;-37
2022/06/04 08:40:21;;;;;;;;;;;;;;;35.69;30.86;99974.22;5051356;28;19916;-37
2022/06/04 08:42:54;;;;;;;;;;;;;;;35.69;30.62;99977.00;5051661;28;19951;-38
2022/06/04 08:45:19;;;;;;;;;;;;;;;35.87;30.56;99974.56;5051879;28;19909;-37
2022/06/04 08:47:46;;;;;;;;;;;;;;;36.12;29.85;99969.41;5051486;28;19908;-38
2022/06/04 08:50:15;;;;;;;;;;;;;;;36.89;28.88;99970.16;5049812;28;19909;-38
2022/06/04 08:52:42;;;;;;;;;;;;;;;35.54;30.24;99969.56;5049636;28;19923;-38
2022/06/04 08:58:14;;;;;;;;;;;;;;;35.34;30.43;99958.53;5050430;28;20375;-38
2022/06/04 09:00:51;;;;;;;;;;;;;;;34.92;30.56;99964.78;5050076;28;19915;-39
2022/06/04 09:03:24;;;;;;;;;;;;;;;35.23;30.66;99954.78;5050238;28;19913;-38
2022/06/04 09:06:02;;;;;;;;;;;;;;;35.58;30.43;99957.38;5051526;28;19915;-38
2022/06/04 09:08:32;;;;;;;;;;;;;;;34.85;31.29;99942.53;5051947;28;19935;-38
2022/06/04 09:10:58;;;;;;;;;;;;;;;35.13;30.19;99950.59;5051222;28;20015;-38
2022/06/04 09:13:31;;;;;;;;;;;;;;;35.02;31.11;99950.38;5043678;28;19989;-38
2022/06/04 09:16:02;;;;;;;;;;;;;;;35.11;28.68;99954.88;5031266;28;20334;-38
2022/06/04 09:18:32;;;;;;;;;;;;;;;34.85;28.69;99946.09;5031343;28;19917;-37
2022/06/04 09:20:59;;;;;;;;;;;;;;;34.58;29.76;99936.78;5031467;28;19920;-37
2022/06/04 09:23:33;;;;;;;;;;;;;;;35.07;29.09;99942.94;5031104;28;19966;-36
2022/06/04 09:25:59;;;;;;;;;;;;;;;34.64;30.36;99938.09;5031254;28;19963;-37
2022/06/04 09:28:30;;;;;;;;;;;;;;;34.60;28.09;99931.72;5031123;28;20090;-38
2022/06/04 09:31:03;;;;;;;;;;;;;;;34.42;29.56;99913.94;5030839;28;19921;-38
2022/06/04 09:33:51;;;;;;;;;;;;;;;35.13;28.73;99930.44;5030664;28;20416;-38
2022/06/04 09:36:18;;;;;;;;;;;;;;;34.80;29.32;99921.47;5030782;28;19909;-38
2022/06/04 09:38:59;;;;;;;;;;;;;;;35.82;28.49;99917.53;5032554;28;19916;-38
2022/06/04 09:41:25;;;;;;;;;;;;;;;34.23;31.68;99923.78;5036442;28;19936;-39
2022/06/04 09:44:01;;;;;;;;;;;;;;;33.47;32.93;99914.72;5040865;28;19999;-38
2022/06/04 09:46:26;;;;;;;;;;;;;;;33.58;32.55;99904.78;5044960;28;19913;-38
2022/06/04 09:48:53;;;;;;;;;;;;;;;33.43;32.31;99895.34;5033067;28;19916;-38
2022/06/04 09:51:21;;;;;;;;;;;;;;;33.64;31.63;99897.06;5045748;28;19950;-38
2022/06/04 09:53:54;;;;;;;;;;;;;;;33.47;32.45;99898.19;5038932;28;19913;-36
2022/06/04 09:56:28;;;;;;;;;;;;;;;33.64;31.88;99908.94;5037128;28;19909;-38
2022/06/04 09:58:53;;;;;;;;;;;;;;;33.99;30.54;99890.84;5046851;28;20250;-38
2022/06/04 10:01:19;;;;;;;;;;;;;;;34.19;30.53;99891.72;5029385;28;19916;-38
2022/06/04 10:03:45;;;;;;;;;;;;;;;33.94;31.12;99885.59;5038546;28;20373;-38
2022/06/04 10:06:16;;;;;;;;;;;;;;;33.74;31.80;99885.53;5050128;28;19923;-38
2022/06/04 10:11:32;;;;;;;;;;;;;;;33.86;30.82;99874.38;5033934;28;19928;-38
2022/06/04 10:13:58;;;;;;;;;;;;;;;33.94;31.11;99880.06;5030050;28;19919;-38
2022/06/04 10:16:23;;;;;;;;;;;;;;;33.47;31.12;99881.63;5043767;28;19987;-38
2022/06/04 10:18:59;;;;;;;;;;;;;;;33.68;29.21;99860.16;5033376;28;19917;-38
2022/06/04 10:21:39;;;;;;;;;;;;;;;33.56;30.84;99870.44;5044471;28;20270;-38
2022/06/04 10:24:07;;;;;;;;;;;;;;;33.68;31.05;99853.81;5041111;28;19957;-38
2022/06/04 10:26:51;;;;;;;;;;;;;;;34.34;30.32;99840.38;5033508;28;19909;-38
2022/06/04 10:29:17;;;;;;;;;;;;;;;34.93;29.54;99852.25;5034378;28;20302;-36
2022/06/04 10:32:00;;;;;;;;;;;;;;;34.84;29.77;99863.53;5041059;28;19917;-38
2022/06/04 10:34:38;;;;;;;;;;;;;;;34.22;31.13;99863.41;5043763;28;19976;-38
2022/06/04 10:37:03;;;;;;;;;;;;;;;34.72;29.69;99858.16;5033273;28;19913;-38
2022/06/04 10:39:44;;;;;;;;;;;;;;;34.74;29.73;99844.78;5043123;28;20012;-38
2022/06/04 10:42:27;;;;;;;;;;;;;;;34.72;28.79;99849.88;5041216;28;19913;-38
2022/06/04 10:45:13;;;;;;;;;;;;;;;34.85;28.79;99835.53;5038868;28;19916;-38
2022/06/04 10:48:10;;;;;;;;;;;;;;;34.18;29.99;99841.22;5033516;28;20376;-38
2022/06/04 10:53:34;;;;;;;;;;;;;;;35.28;28.56;99843.88;5039000;28;20296;-38
2022/06/04 10:56:01;;;;;;;;;;;;;;;34.61;29.17;99844.09;5036757;28;20029;-38
2022/06/04 10:58:36;;;;;;;;;;;;;;;34.33;29.46;99830.47;5039895;28;19951;-38
2022/06/04 11:01:22;;;;;;;;;;;;;;;34.78;29.80;99829.06;5045371;28;19912;-38
2022/06/04 11:03:47;;;;;;;;;;;;;;;34.49;28.98;99830.44;5040540;28;19939;-38
2022/06/04 11:06:26;;;;;;;;;;;;;;;34.68;28.80;99816.66;5045169;28;20380;-38
2022/06/04 11:08:58;;;;;;;;;;;;;;;34.63;30.02;99830.72;5046161;28;20391;-38
2022/06/04 11:11:24;;;;;;;;;;;;;;;34.11;30.47;99830.00;5040482;28;20456;-38
2022/06/04 11:13:55;;;;;;;;;;;;;;;34.23;30.75;99821.63;5051021;28;20042;-38
2022/06/04 11:16:36;;;;;;;;;;;;;;;33.46;32.08;99827.66;5039609;28;19917;-38
2022/06/04 11:19:02;;;;;;;;;;;;;;;33.54;31.47;99814.84;5049635;28;20316;-38
2022/06/04 11:21:34;;;;;;;;;;;;;;;33.96;31.17;99828.88;5038915;28;20361;-37
2022/06/04 11:24:02;;;;;;;;;;;;;;;33.71;31.75;99819.22;5041124;28;19909;-38
2022/06/04 11:26:33;;;;;;;;;;;;;;;34.12;31.69;99805.94;5047848;28;20066;-38
2022/06/04 11:29:00;;;;;;;;;;;;;;;33.81;31.25;99811.16;5035301;28;19978;-38
2022/06/04 11:31:34;;;;;;;;;;;;;;;33.41;32.17;99795.63;5045890;28;19917;-38
2022/06/04 11:34:15;;;;;;;;;;;;;;;33.48;32.67;99789.50;5041533;28;20004;-39
2022/06/04 11:36:43;;;;;;;;;;;;;;;34.12;31.95;99787.44;5033219;28;19913;-37
2022/06/04 11:39:27;;;;;;;;;;;;;;;34.37;31.72;99788.00;5036993;28;19909;-38
2022/06/04 11:41:55;;;;;;;;;;;;;;;34.17;32.38;99787.16;5043018;28;20031;-37
2022/06/04 11:44:30;;;;;;;;;;;;;;;33.99;32.42;99786.75;5046659;28;19928;-39
2022/06/04 11:46:58;;;;;;;;;;;;;;;33.43;32.47;99767.69;5035821;28;19948;-37
2022/06/04 11:49:26;;;;;;;;;;;;;;;33.76;31.57;99766.50;5045743;28;19917;-38
2022/06/04 11:52:00;;;;;;;;;;;;;;;33.60;31.40;99756.28;5040628;28;19920;-38
2022/06/04 11:54:40;;;;;;;;;;;;;;;33.90;31.86;99758.56;5037484;28;19952;-38
2022/06/04 11:57:06;;;;;;;;;;;;;;;34.36;31.78;99761.53;5051512;28;19951;-39
2022/06/04 11:59:40;;;;;;;;;;;;;;;33.77;31.50;99744.06;5044485;28;19947;-38
2022/06/04 12:02:13;;;;;;;;;;;;;;;33.46;32.62;99747.69;5042752;28;19962;-38
2022/06/04 12:04:47;;;;;;;;;;;;;;;33.30;32.42;99736.66;5051057;28;20422;-38
2022/06/04 12:07:20;;;;;;;;;;;;;;;33.46;32.89;99742.97;5035274;28;19955;-38
2022/06/04 12:09:48;;;;;;;;;;;;;;;33.66;32.78;99745.78;5041852;28;19956;-37
2022/06/04 12:12:27;;;;;;;;;;;;;;;34.02;32.13;99736.34;5034645;28;19913;-38
2022/06/04 12:14:59;;;;;;;;;;;;;;;34.63;32.55;99732.06;5033731;28;20404;-38
2022/06/04 12:17:31;;;;;;;;;;;;;;;34.06;32.71;99739.19;5038418;28;19916;-38
2022/06/04 12:25:39;;;;;;;;;;;;;;;33.26;32.69;99744.03;5039879;28;19919;-39
2022/06/04 12:28:24;;;;;;;;;;;;;;;33.20;32.68;99740.75;5040742;28;19909;-38
2022/06/04 12:30:50;;;;;;;;;;;;;;;33.64;32.48;99734.31;5048197;28;19913;-37
2022/06/04 12:33:54;;;;;;;;;;;;;;;34.71;32.04;99729.44;5036869;28;19913;-38
2022/06/04 12:36:32;;;;;;;;;;;;;;;34.39;30.92;99732.41;5005823;28;19921;-38
2022/06/04 12:39:03;;;;;;;;;;;;;;;34.18;31.10;99725.28;4993866;28;20279;-38
2022/06/04 12:41:37;;;;;;;;;;;;;;;34.33;31.38;99717.25;5015238;28;20011;-38
2022/06/04 12:44:04;;;;;;;;;;;;;;;34.39;31.09;99724.13;5040396;28;19909;-38
2022/06/04 12:46:33;;;;;;;;;;;;;;;34.97;30.31;99707.41;5046117;28;20007;-38
2022/06/04 12:49:14;;;;;;;;;;;;;;;34.53;30.37;99716.09;5035081;28;19951;-38
2022/06/04 12:51:45;;;;;;;;;;;;;;;34.87;30.20;99705.28;5044068;28;19912;-38
2022/06/04 12:54:29;;;;;;;;;;;;;;;34.25;31.48;99711.63;5043636;28;20394;-38
2022/06/04 12:57:23;;;;;;;;;;;;;;;33.74;31.84;99713.66;5034439;28;20007;-38
2022/06/04 12:59:51;;;;;;;;;;;;;;;34.24;31.41;99698.97;5005530;28;20357;-40
2022/06/04 13:02:49;;;;;;;;;;;;;;;34.42;30.39;99699.31;5044886;28;19913;-38
2022/06/04 13:05:19;;;;;;;;;;;;;;;34.04;31.33;99691.81;5023554;28;20345;-38
2022/06/04 13:07:54;;;;;;;;;;;;;;;34.68;30.30;99675.75;5039704;28;20328;-38
2022/06/04 13:10:31;;;;;;;;;;;;;;;34.56;30.45;99682.22;5037825;28;20012;-39
2022/06/04 13:13:00;;;;;;;;;;;;;;;34.56;31.14;99678.66;5048149;28;19913;-37